Language selection

Weather shortcuts

Atlantic - Newfoundland: Past 24 Hour Conditions

 

Banquereau - 44139

02:00 PM ADT 16 June 2024Buoy position: 44.27N 57.08W
Disclaimer

This table is a summary of hourly weather conditions for the past 24 hours.
Please note that these observations might not always be representative of weather conditions over their associated marine area.

Date / Time
(ADT)
Wind(knots) Wave height(m) Wave period(s) Pressure(kPa) Air tempC) Water tempC)
16 June 2024
14:00 WNW 9 gusts 10 1.79 9.1 101.5 12 11
13:00 NW 11 gusts 13 1.75 8.3 101.5 12 10
12:00 NW 12 gusts 15 1.68 8.7 101.5 12 10
11:00 NW 10 gusts 12 2.30 9.5 101.5 11 10
10:00 NW 9 gusts 11 2.16 9.1 101.4 11 10
9:00 NNW 12 gusts 13 1.95 9.1 101.4 11 10
8:00 NW 10 gusts 13 1.95 8.0 101.3 11 10
7:00 NW 11 gusts 13 1.92 7.7 101.2 11 10
6:00 WNW 13 gusts 15 1.85 7.7 101.1 11 10
5:00 WNW 12 gusts 15 1.46 6.7 101.0 11 10
4:00 NW 10 gusts 13 1.38 5.7 100.9 11 10
3:00 NNW 15 gusts 17 1.27 7.1 100.8 12 10
2:00 NNW 17 gusts 22 1.26 6.9 100.7 11 10
1:00 W 12 gusts 15 1.50 5.9 100.6 12 10
0:00 SSW 15 gusts 17 1.56 6.7 100.6 13 10
15 June 2024
23:00 SSW 18 gusts 22 1.49 6.3 100.6 14 10
22:00 SSW 25 gusts 29 1.34 6.1 100.6 15 10
21:00 SSW 18 gusts 20 1.34 5.7 100.7 14 10
20:00 SSW 19 gusts 24 1.42 5.7 100.8 14 10
19:00 S 12 gusts 14 1.39 6.1 100.9 13 10
18:00 S 11 gusts 12 1.49 5.1 100.9 12 10
17:00 SSW 13 gusts 16 1.71 5.6 101.0 13 10
16:00 SSW 16 gusts 18 1.59 5.1 101.0 13 10
15:00 SSW 22 gusts 26 1.49 4.7 101.0 15 10
14:00 SSW 19 gusts 22 1.37 4.8 101.0 14 10

Zoom-in to make a selection

Map of Atlantic - Newfoundland marine weather areas Banquereau - 44139 East Chedabucto Bay – 44488 West Chedabucto Bay – 44489 Blanc-Sablon Airport Cap Whittle Chevery Natashquan Airport Heath Point Îles de la Madeleine Airport Miscou Island Eskasoni (First Nations) Grand Étang Ingonish Beach North Mountain St.Paul Island J.A. Douglas McCurdy Sydney Airport Charlottetown Airport East Point North Cape Argentia Berry Hill Bonavista Burgeo Cape Race Corner Brook Daniel's Harbour Englee Ferolle Point La Scie Port aux Basques Sagona Island St. Anthony Airport St. John's Int'l Airport St. Lawrence Stephenville Airport Twillingate Winterland Branch Hill Wreckhouse Grates Cove Pool's Island Marticot Island Long Pond Cartwright Airport Mary's Harbour
Legend:
buoy Buoy
land station Land Station

Atlantic - Newfoundland Area

Another Region

Features

New Predicting and Alerting Coastal Flooding Program

Find out about coastal flooding coverage, forecasts and warnings in your region

Date modified: